sensor_id;sensor_type;location;lat;lon;timestamp;P1;durP1;ratioP1;P2;durP2;ratioP2
76786;SDS011;65739;51.482;5.702;2024-03-02T08:17:00;2.42;;;0.80;;
76786;SDS011;65739;51.482;5.702;2024-03-02T08:19:26;0.57;;;0.40;;
76786;SDS011;65739;51.482;5.702;2024-03-02T08:21:52;5.97;;;0.60;;
76786;SDS011;65739;51.482;5.702;2024-03-02T08:24:18;2.25;;;0.40;;
76786;SDS011;65739;51.482;5.702;2024-03-02T08:26:43;4.07;;;0.70;;
76786;SDS011;65739;51.482;5.702;2024-03-02T08:29:09;5.65;;;0.85;;
76786;SDS011;65739;51.482;5.702;2024-03-02T08:31:35;2.42;;;0.47;;
76786;SDS011;65739;51.482;5.702;2024-03-02T08:34:00;3.85;;;0.82;;
76786;SDS011;65739;51.482;5.702;2024-03-02T08:36:27;1.85;;;0.45;;
76786;SDS011;65739;51.482;5.702;2024-03-02T08:38:52;1.42;;;0.40;;
76786;SDS011;65739;51.482;5.702;2024-03-02T08:41:18;2.63;;;0.73;;
76786;SDS011;65739;51.482;5.702;2024-03-02T08:43:44;3.13;;;0.63;;
76786;SDS011;65739;51.482;5.702;2024-03-02T08:46:09;1.27;;;0.60;;
76786;SDS011;65739;51.482;5.702;2024-03-02T08:48:35;3.97;;;0.68;;
76786;SDS011;65739;51.482;5.702;2024-03-02T08:51:01;0.73;;;0.40;;
76786;SDS011;65739;51.482;5.702;2024-03-02T08:53:29;3.80;;;0.98;;
76786;SDS011;65739;51.482;5.702;2024-03-02T08:55:55;1.35;;;0.40;;
76786;SDS011;65739;51.482;5.702;2024-03-02T08:58:39;2.30;;;0.60;;
76786;SDS011;65739;51.482;5.702;2024-03-02T09:01:05;1.90;;;0.60;;
76786;SDS011;65739;51.482;5.702;2024-03-02T09:03:32;3.55;;;0.60;;
76786;SDS011;65739;51.482;5.702;2024-03-02T09:05:58;2.28;;;0.70;;
76786;SDS011;65739;51.482;5.702;2024-03-02T09:08:24;3.78;;;0.70;;
76786;SDS011;65739;51.482;5.702;2024-03-02T09:10:50;3.45;;;0.60;;
76786;SDS011;65739;51.482;5.702;2024-03-02T09:13:15;2.40;;;0.60;;
76786;SDS011;65739;51.482;5.702;2024-03-02T09:15:41;2.65;;;0.60;;
76786;SDS011;65739;51.482;5.702;2024-03-02T09:18:07;4.18;;;0.80;;
76786;SDS011;65739;51.482;5.702;2024-03-02T09:20:32;3.78;;;0.80;;
76786;SDS011;65739;51.482;5.702;2024-03-02T09:22:58;3.97;;;0.90;;
76786;SDS011;65739;51.482;5.702;2024-03-02T09:25:24;2.88;;;0.82;;
76786;SDS011;65739;51.482;5.702;2024-03-02T09:28:25;2.78;;;1.10;;
76786;SDS011;65739;51.482;5.702;2024-03-02T09:30:52;3.00;;;0.70;;
76786;SDS011;65739;51.482;5.702;2024-03-02T09:33:33;3.03;;;0.60;;
76786;SDS011;65739;51.482;5.702;2024-03-02T09:35:58;4.22;;;0.65;;
76786;SDS011;65739;51.482;5.702;2024-03-02T09:38:30;2.55;;;0.80;;
76786;SDS011;65739;51.482;5.702;2024-03-02T09:41:06;4.78;;;0.60;;
76786;SDS011;65739;51.482;5.702;2024-03-02T09:43:51;1.77;;;0.60;;
76786;SDS011;65739;51.482;5.702;2024-03-02T09:46:20;3.58;;;0.57;;
76786;SDS011;65739;51.482;5.702;2024-03-02T09:48:45;0.77;;;0.47;;
76786;SDS011;65739;51.482;5.702;2024-03-02T09:51:11;3.58;;;0.60;;
76786;SDS011;65739;51.482;5.702;2024-03-02T09:53:44;1.85;;;0.85;;
76786;SDS011;65739;51.482;5.702;2024-03-02T09:56:10;1.17;;;0.70;;
76786;SDS011;65739;51.482;5.702;2024-03-02T09:58:36;4.82;;;0.70;;
76786;SDS011;65739;51.482;5.702;2024-03-02T10:01:01;2.80;;;0.60;;
76786;SDS011;65739;51.482;5.702;2024-03-02T10:03:37;5.57;;;0.60;;
76786;SDS011;65739;51.482;5.702;2024-03-02T10:06:18;3.03;;;0.60;;
76786;SDS011;65739;51.482;5.702;2024-03-02T10:08:44;2.42;;;0.60;;
76786;SDS011;65739;51.482;5.702;2024-03-02T10:11:24;3.10;;;0.63;;
76786;SDS011;65739;51.482;5.702;2024-03-02T10:14:12;3.00;;;0.60;;
76786;SDS011;65739;51.482;5.702;2024-03-02T10:16:42;5.75;;;0.90;;
76786;SDS011;65739;51.482;5.702;2024-03-02T10:19:15;3.55;;;0.73;;
76786;SDS011;65739;51.482;5.702;2024-03-02T10:21:51;1.95;;;0.73;;
76786;SDS011;65739;51.482;5.702;2024-03-02T10:24:18;2.67;;;0.80;;
76786;SDS011;65739;51.482;5.702;2024-03-02T10:26:44;3.22;;;0.70;;
76786;SDS011;65739;51.482;5.702;2024-03-02T10:29:20;5.10;;;0.90;;
76786;SDS011;65739;51.482;5.702;2024-03-02T10:31:46;3.72;;;0.93;;
76786;SDS011;65739;51.482;5.702;2024-03-02T10:34:12;5.40;;;0.77;;
76786;SDS011;65739;51.482;5.702;2024-03-02T10:36:42;1.38;;;0.90;;
76786;SDS011;65739;51.482;5.702;2024-03-02T10:39:08;2.97;;;1.10;;
76786;SDS011;65739;51.482;5.702;2024-03-02T10:41:36;1.90;;;0.77;;
76786;SDS011;65739;51.482;5.702;2024-03-02T10:44:05;5.13;;;0.77;;
76786;SDS011;65739;51.482;5.702;2024-03-02T10:46:35;2.00;;;0.68;;
76786;SDS011;65739;51.482;5.702;2024-03-02T10:49:02;2.80;;;0.57;;
76786;SDS011;65739;51.482;5.702;2024-03-02T10:51:30;3.15;;;0.70;;
76786;SDS011;65739;51.482;5.702;2024-03-02T10:53:57;2.15;;;0.50;;
76786;SDS011;65739;51.482;5.702;2024-03-02T10:56:43;2.97;;;0.40;;
76786;SDS011;65739;51.482;5.702;2024-03-02T11:02:01;4.18;;;0.70;;
76786;SDS011;65739;51.482;5.702;2024-03-02T11:04:29;2.10;;;0.55;;
76786;SDS011;65739;51.482;5.702;2024-03-02T11:07:00;4.25;;;0.63;;
76786;SDS011;65739;51.482;5.702;2024-03-02T11:09:26;3.30;;;0.90;;
76786;SDS011;65739;51.482;5.702;2024-03-02T11:12:00;1.95;;;0.50;;
76786;SDS011;65739;51.482;5.702;2024-03-02T11:14:31;4.45;;;0.80;;
76786;SDS011;65739;51.482;5.702;2024-03-02T11:17:01;4.30;;;0.93;;
76786;SDS011;65739;51.482;5.702;2024-03-02T11:19:28;1.77;;;0.60;;
76786;SDS011;65739;51.482;5.702;2024-03-02T11:21:57;2.17;;;0.50;;
76786;SDS011;65739;51.482;5.702;2024-03-02T11:26:49;3.65;;;0.50;;
76786;SDS011;65739;51.482;5.702;2024-03-02T11:32:01;1.90;;;0.70;;
76786;SDS011;65739;51.482;5.702;2024-03-02T11:34:34;1.63;;;0.75;;
76786;SDS011;65739;51.482;5.702;2024-03-02T11:37:04;3.83;;;0.70;;
76786;SDS011;65739;51.482;5.702;2024-03-02T11:39:31;3.45;;;0.80;;
76786;SDS011;65739;51.482;5.702;2024-03-02T11:41:57;2.38;;;0.63;;
76786;SDS011;65739;51.482;5.702;2024-03-02T11:44:27;2.17;;;0.73;;
76786;SDS011;65739;51.482;5.702;2024-03-02T11:46:59;3.70;;;0.90;;
76786;SDS011;65739;51.482;5.702;2024-03-02T11:49:49;3.55;;;0.93;;
76786;SDS011;65739;51.482;5.702;2024-03-02T11:52:17;3.00;;;1.02;;
76786;SDS011;65739;51.482;5.702;2024-03-02T11:54:44;2.70;;;0.85;;
76786;SDS011;65739;51.482;5.702;2024-03-02T11:57:20;3.50;;;1.00;;
76786;SDS011;65739;51.482;5.702;2024-03-02T11:59:51;1.60;;;0.70;;
76786;SDS011;65739;51.482;5.702;2024-03-02T12:02:26;3.55;;;0.80;;
76786;SDS011;65739;51.482;5.702;2024-03-02T12:04:51;3.15;;;1.00;;
76786;SDS011;65739;51.482;5.702;2024-03-02T12:07:21;2.05;;;0.73;;
76786;SDS011;65739;51.482;5.702;2024-03-02T12:09:48;2.20;;;0.80;;
76786;SDS011;65739;51.482;5.702;2024-03-02T12:12:23;2.28;;;0.90;;
76786;SDS011;65739;51.482;5.702;2024-03-02T12:14:51;5.50;;;0.77;;
76786;SDS011;65739;51.482;5.702;2024-03-02T12:17:25;1.65;;;0.65;;
76786;SDS011;65739;51.482;5.702;2024-03-02T12:19:51;2.90;;;0.80;;
76786;SDS011;65739;51.482;5.702;2024-03-02T12:22:17;3.58;;;0.73;;
76786;SDS011;65739;51.482;5.702;2024-03-02T12:24:46;3.45;;;0.68;;
76786;SDS011;65739;51.482;5.702;2024-03-02T12:27:12;2.10;;;0.73;;
76786;SDS011;65739;51.482;5.702;2024-03-02T12:29:41;2.92;;;0.70;;
76786;SDS011;65739;51.482;5.702;2024-03-02T12:32:09;3.10;;;0.90;;
76786;SDS011;65739;51.482;5.702;2024-03-02T12:34:35;1.75;;;0.70;;
76786;SDS011;65739;51.482;5.702;2024-03-02T12:37:02;3.22;;;0.90;;
76786;SDS011;65739;51.482;5.702;2024-03-02T12:39:28;3.75;;;0.50;;
76786;SDS011;65739;51.482;5.702;2024-03-02T12:41:55;5.60;;;0.80;;
76786;SDS011;65739;51.482;5.702;2024-03-02T12:44:21;4.10;;;0.82;;
76786;SDS011;65739;51.482;5.702;2024-03-02T12:46:46;5.13;;;1.08;;
76786;SDS011;65739;51.482;5.702;2024-03-02T12:49:14;4.70;;;0.70;;
76786;SDS011;65739;51.482;5.702;2024-03-02T12:51:45;5.90;;;0.95;;
76786;SDS011;65739;51.482;5.702;2024-03-02T12:54:16;2.28;;;0.70;;
76786;SDS011;65739;51.482;5.702;2024-03-02T12:56:42;4.53;;;0.85;;
76786;SDS011;65739;51.482;5.702;2024-03-02T12:59:17;3.83;;;0.70;;
76786;SDS011;65739;51.482;5.702;2024-03-02T13:01:52;2.75;;;0.60;;
76786;SDS011;65739;51.482;5.702;2024-03-02T13:04:21;2.80;;;0.70;;
76786;SDS011;65739;51.482;5.702;2024-03-02T13:06:53;4.45;;;0.82;;
76786;SDS011;65739;51.482;5.702;2024-03-02T13:09:20;2.15;;;0.63;;
76786;SDS011;65739;51.482;5.702;2024-03-02T13:11:46;2.72;;;0.70;;
76786;SDS011;65739;51.482;5.702;2024-03-02T13:14:14;2.50;;;0.60;;
76786;SDS011;65739;51.482;5.702;2024-03-02T13:16:40;3.15;;;0.73;;
76786;SDS011;65739;51.482;5.702;2024-03-02T13:19:07;5.15;;;0.70;;
76786;SDS011;65739;51.482;5.702;2024-03-02T13:21:33;1.50;;;0.73;;
76786;SDS011;65739;51.482;5.702;2024-03-02T13:23:59;2.30;;;0.63;;
76786;SDS011;65739;51.482;5.702;2024-03-02T13:26:25;5.28;;;0.65;;
76786;SDS011;65739;51.482;5.702;2024-03-02T13:28:51;2.58;;;0.52;;
76786;SDS011;65739;51.482;5.702;2024-03-02T13:31:16;4.07;;;0.80;;
76786;SDS011;65739;51.482;5.702;2024-03-02T13:33:42;3.38;;;0.60;;
76786;SDS011;65739;51.482;5.702;2024-03-02T13:36:07;3.45;;;0.70;;
76786;SDS011;65739;51.482;5.702;2024-03-02T13:38:33;1.42;;;0.60;;
76786;SDS011;65739;51.482;5.702;2024-03-02T13:40:59;3.42;;;0.50;;
76786;SDS011;65739;51.482;5.702;2024-03-02T13:43:26;1.92;;;0.55;;
76786;SDS011;65739;51.482;5.702;2024-03-02T13:45:51;1.48;;;0.60;;
76786;SDS011;65739;51.482;5.702;2024-03-02T13:48:20;1.85;;;0.73;;
76786;SDS011;65739;51.482;5.702;2024-03-02T13:50:46;2.15;;;0.40;;
76786;SDS011;65739;51.482;5.702;2024-03-02T13:53:16;2.10;;;0.47;;
76786;SDS011;65739;51.482;5.702;2024-03-02T13:55:42;0.93;;;0.50;;
76786;SDS011;65739;51.482;5.702;2024-03-02T13:58:08;1.52;;;0.52;;
76786;SDS011;65739;51.482;5.702;2024-03-02T14:00:34;2.08;;;0.38;;
76786;SDS011;65739;51.482;5.702;2024-03-02T14:03:03;1.38;;;0.60;;
76786;SDS011;65739;51.482;5.702;2024-03-02T14:05:34;1.92;;;1.10;;
76786;SDS011;65739;51.482;5.702;2024-03-02T14:08:01;1.63;;;0.52;;
76786;SDS011;65739;51.482;5.702;2024-03-02T14:10:27;2.15;;;0.70;;
76786;SDS011;65739;51.482;5.702;2024-03-02T14:12:53;1.70;;;0.80;;
76786;SDS011;65739;51.482;5.702;2024-03-02T14:15:22;1.98;;;0.63;;
76786;SDS011;65739;51.482;5.702;2024-03-02T14:17:48;1.65;;;0.75;;
76786;SDS011;65739;51.482;5.702;2024-03-02T14:20:14;2.95;;;0.40;;
76786;SDS011;65739;51.482;5.702;2024-03-02T14:22:45;1.42;;;0.57;;
76786;SDS011;65739;51.482;5.702;2024-03-02T14:25:11;3.05;;;0.82;;
76786;SDS011;65739;51.482;5.702;2024-03-02T14:27:36;1.40;;;0.60;;
76786;SDS011;65739;51.482;5.702;2024-03-02T14:30:02;1.55;;;0.90;;
76786;SDS011;65739;51.482;5.702;2024-03-02T14:32:28;5.13;;;0.70;;
76786;SDS011;65739;51.482;5.702;2024-03-02T14:34:59;1.85;;;0.50;;
76786;SDS011;65739;51.482;5.702;2024-03-02T14:37:24;1.83;;;0.60;;
76786;SDS011;65739;51.482;5.702;2024-03-02T14:39:50;0.73;;;0.60;;
76786;SDS011;65739;51.482;5.702;2024-03-02T14:42:16;1.88;;;0.70;;
76786;SDS011;65739;51.482;5.702;2024-03-02T14:44:41;2.72;;;0.65;;
76786;SDS011;65739;51.482;5.702;2024-03-02T14:47:07;1.77;;;0.70;;
76786;SDS011;65739;51.482;5.702;2024-03-02T14:49:33;2.25;;;0.50;;
76786;SDS011;65739;51.482;5.702;2024-03-02T14:52:01;3.08;;;0.70;;
76786;SDS011;65739;51.482;5.702;2024-03-02T14:54:27;0.82;;;0.50;;
76786;SDS011;65739;51.482;5.702;2024-03-02T14:56:53;1.77;;;0.50;;
76786;SDS011;65739;51.482;5.702;2024-03-02T14:59:20;1.40;;;0.45;;
76786;SDS011;65739;51.482;5.702;2024-03-02T15:01:46;1.13;;;0.70;;
76786;SDS011;65739;51.482;5.702;2024-03-02T15:04:13;3.00;;;0.90;;
76786;SDS011;65739;51.482;5.702;2024-03-02T15:06:41;0.77;;;0.68;;
76786;SDS011;65739;51.482;5.702;2024-03-02T15:09:07;2.42;;;0.75;;
76786;SDS011;65739;51.482;5.702;2024-03-02T15:11:33;2.88;;;0.70;;
76786;SDS011;65739;51.482;5.702;2024-03-02T15:14:02;2.15;;;0.73;;
76786;SDS011;65739;51.482;5.702;2024-03-02T15:16:27;2.78;;;0.63;;
76786;SDS011;65739;51.482;5.702;2024-03-02T15:18:54;1.45;;;0.75;;
76786;SDS011;65739;51.482;5.702;2024-03-02T15:21:20;0.63;;;0.57;;
76786;SDS011;65739;51.482;5.702;2024-03-02T15:23:45;1.70;;;0.77;;
76786;SDS011;65739;51.482;5.702;2024-03-02T15:26:11;1.13;;;0.55;;
76786;SDS011;65739;51.482;5.702;2024-03-02T15:28:37;1.65;;;0.60;;
76786;SDS011;65739;51.482;5.702;2024-03-02T15:31:03;1.75;;;0.50;;
76786;SDS011;65739;51.482;5.702;2024-03-02T15:33:29;0.93;;;0.40;;
76786;SDS011;65739;51.482;5.702;2024-03-02T15:35:58;1.38;;;0.60;;
76786;SDS011;65739;51.482;5.702;2024-03-02T15:38:26;1.13;;;0.40;;
76786;SDS011;65739;51.482;5.702;2024-03-02T15:40:51;1.42;;;0.60;;
76786;SDS011;65739;51.482;5.702;2024-03-02T15:43:17;1.80;;;0.95;;
76786;SDS011;65739;51.482;5.702;2024-03-02T15:45:43;4.28;;;0.90;;
76786;SDS011;65739;51.482;5.702;2024-03-02T15:48:08;0.63;;;0.50;;
76786;SDS011;65739;51.482;5.702;2024-03-02T15:50:34;0.93;;;0.77;;
76786;SDS011;65739;51.482;5.702;2024-03-02T15:53:01;1.65;;;0.80;;
76786;SDS011;65739;51.482;5.702;2024-03-02T15:55:30;2.08;;;0.63;;
76786;SDS011;65739;51.482;5.702;2024-03-02T15:57:56;1.48;;;0.90;;
76786;SDS011;65739;51.482;5.702;2024-03-02T16:00:22;1.58;;;0.60;;
76786;SDS011;65739;51.482;5.702;2024-03-02T16:02:47;1.58;;;0.75;;
76786;SDS011;65739;51.482;5.702;2024-03-02T16:05:13;1.77;;;0.70;;
76786;SDS011;65739;51.482;5.702;2024-03-02T16:07:39;0.57;;;0.52;;
76786;SDS011;65739;51.482;5.702;2024-03-02T16:10:05;0.55;;;0.55;;
76786;SDS011;65739;51.482;5.702;2024-03-02T16:12:32;2.70;;;0.80;;
76786;SDS011;65739;51.482;5.702;2024-03-02T16:14:58;1.73;;;0.70;;
76786;SDS011;65739;51.482;5.702;2024-03-02T16:17:24;2.03;;;0.60;;
76786;SDS011;65739;51.482;5.702;2024-03-02T16:19:49;1.30;;;0.60;;
76786;SDS011;65739;51.482;5.702;2024-03-02T16:22:15;0.77;;;0.57;;
76786;SDS011;65739;51.482;5.702;2024-03-02T16:24:41;0.68;;;0.63;;
76786;SDS011;65739;51.482;5.702;2024-03-02T16:27:06;1.38;;;0.57;;
76786;SDS011;65739;51.482;5.702;2024-03-02T16:29:33;2.22;;;0.80;;
76786;SDS011;65739;51.482;5.702;2024-03-02T16:32:03;1.27;;;0.70;;
76786;SDS011;65739;51.482;5.702;2024-03-02T16:34:29;0.95;;;0.80;;
76786;SDS011;65739;51.482;5.702;2024-03-02T16:36:54;2.28;;;1.10;;
76786;SDS011;65739;51.482;5.702;2024-03-02T16:39:21;0.98;;;0.75;;
76786;SDS011;65739;51.482;5.702;2024-03-02T16:41:47;2.35;;;0.80;;
76786;SDS011;65739;51.482;5.702;2024-03-02T16:44:13;1.75;;;0.93;;
76786;SDS011;65739;51.482;5.702;2024-03-02T16:46:38;2.35;;;0.80;;
76786;SDS011;65739;51.482;5.702;2024-03-02T16:49:08;1.17;;;0.52;;
76786;SDS011;65739;51.482;5.702;2024-03-02T16:51:41;2.08;;;0.70;;
76786;SDS011;65739;51.482;5.702;2024-03-02T16:54:07;1.27;;;0.88;;
76786;SDS011;65739;51.482;5.702;2024-03-02T16:56:39;1.38;;;0.75;;
76786;SDS011;65739;51.482;5.702;2024-03-02T16:59:27;2.78;;;1.05;;
76786;SDS011;65739;51.482;5.702;2024-03-02T17:01:53;2.15;;;0.90;;
76786;SDS011;65739;51.482;5.702;2024-03-02T17:04:47;2.50;;;0.80;;
76786;SDS011;65739;51.482;5.702;2024-03-02T17:07:16;1.40;;;0.60;;
76786;SDS011;65739;51.482;5.702;2024-03-02T17:49:19;1.23;;;1.10;;
76786;SDS011;65739;51.482;5.702;2024-03-02T17:51:44;1.40;;;1.30;;
76786;SDS011;65739;51.482;5.702;2024-03-02T17:54:19;1.70;;;1.45;;
76786;SDS011;65739;51.482;5.702;2024-03-02T17:56:44;1.38;;;1.27;;
76786;SDS011;65739;51.482;5.702;2024-03-02T17:59:10;1.50;;;1.40;;
76786;SDS011;65739;51.482;5.702;2024-03-02T18:04:22;1.45;;;0.90;;
76786;SDS011;65739;51.482;5.702;2024-03-02T18:06:48;1.60;;;1.20;;
76786;SDS011;65739;51.482;5.702;2024-03-02T18:09:14;2.97;;;1.17;;
76786;SDS011;65739;51.482;5.702;2024-03-02T18:11:39;1.80;;;1.13;;
76786;SDS011;65739;51.482;5.702;2024-03-02T18:14:05;2.72;;;1.20;;
76786;SDS011;65739;51.482;5.702;2024-03-02T18:16:30;2.15;;;1.20;;
76786;SDS011;65739;51.482;5.702;2024-03-02T18:18:56;2.30;;;1.30;;
76786;SDS011;65739;51.482;5.702;2024-03-02T18:21:22;3.08;;;1.70;;
76786;SDS011;65739;51.482;5.702;2024-03-02T18:23:47;4.13;;;1.50;;
76786;SDS011;65739;51.482;5.702;2024-03-02T18:26:13;1.75;;;1.20;;
76786;SDS011;65739;51.482;5.702;2024-03-02T18:28:38;2.42;;;1.17;;
76786;SDS011;65739;51.482;5.702;2024-03-02T18:31:05;3.92;;;1.63;;
76786;SDS011;65739;51.482;5.702;2024-03-02T18:33:30;2.95;;;1.30;;
76786;SDS011;65739;51.482;5.702;2024-03-02T18:35:56;1.95;;;1.70;;
76786;SDS011;65739;51.482;5.702;2024-03-02T18:38:22;3.20;;;1.70;;
76786;SDS011;65739;51.482;5.702;2024-03-02T18:40:49;2.17;;;1.55;;
76786;SDS011;65739;51.482;5.702;2024-03-02T18:43:15;1.83;;;1.10;;
76786;SDS011;65739;51.482;5.702;2024-03-02T18:45:41;1.23;;;1.10;;
76786;SDS011;65739;51.482;5.702;2024-03-02T18:48:07;4.93;;;1.05;;
76786;SDS011;65739;51.482;5.702;2024-03-02T18:50:33;1.52;;;1.20;;
76786;SDS011;65739;51.482;5.702;2024-03-02T18:52:59;3.03;;;1.60;;
76786;SDS011;65739;51.482;5.702;2024-03-02T18:55:25;1.20;;;1.10;;
76786;SDS011;65739;51.482;5.702;2024-03-02T18:57:51;2.70;;;1.30;;
76786;SDS011;65739;51.482;5.702;2024-03-02T19:06:53;3.03;;;1.85;;
76786;SDS011;65739;51.482;5.702;2024-03-02T19:09:19;2.58;;;1.38;;
76786;SDS011;65739;51.482;5.702;2024-03-02T19:11:45;1.52;;;1.40;;
76786;SDS011;65739;51.482;5.702;2024-03-02T19:14:13;2.65;;;1.33;;
76786;SDS011;65739;51.482;5.702;2024-03-02T19:16:40;3.00;;;1.48;;
76786;SDS011;65739;51.482;5.702;2024-03-02T19:19:09;1.27;;;1.10;;
76786;SDS011;65739;51.482;5.702;2024-03-02T19:21:38;1.48;;;1.33;;
76786;SDS011;65739;51.482;5.702;2024-03-02T19:24:03;1.42;;;1.33;;
76786;SDS011;65739;51.482;5.702;2024-03-02T19:26:29;1.65;;;1.55;;
76786;SDS011;65739;51.482;5.702;2024-03-02T19:28:55;4.13;;;1.52;;
76786;SDS011;65739;51.482;5.702;2024-03-02T19:31:20;3.75;;;2.00;;
76786;SDS011;65739;51.482;5.702;2024-03-02T19:33:48;2.22;;;1.60;;
76786;SDS011;65739;51.482;5.702;2024-03-02T19:36:14;2.65;;;1.70;;
76786;SDS011;65739;51.482;5.702;2024-03-02T19:38:40;1.90;;;1.80;;
76786;SDS011;65739;51.482;5.702;2024-03-02T19:41:05;3.17;;;1.63;;
76786;SDS011;65739;51.482;5.702;2024-03-02T19:43:31;1.70;;;1.60;;
76786;SDS011;65739;51.482;5.702;2024-03-02T19:45:57;1.58;;;1.48;;
76786;SDS011;65739;51.482;5.702;2024-03-02T19:48:22;4.15;;;2.20;;
76786;SDS011;65739;51.482;5.702;2024-03-02T19:50:48;2.75;;;1.88;;
76786;SDS011;65739;51.482;5.702;2024-03-02T19:53:13;3.88;;;2.20;;
76786;SDS011;65739;51.482;5.702;2024-03-02T19:55:41;4.85;;;2.08;;
76786;SDS011;65739;51.482;5.702;2024-03-02T19:58:09;3.08;;;2.10;;
76786;SDS011;65739;51.482;5.702;2024-03-02T20:00:35;2.97;;;2.00;;
76786;SDS011;65739;51.482;5.702;2024-03-02T20:03:07;2.50;;;1.85;;
76786;SDS011;65739;51.482;5.702;2024-03-02T20:05:36;2.03;;;1.85;;
76786;SDS011;65739;51.482;5.702;2024-03-02T20:08:01;2.47;;;2.20;;
76786;SDS011;65739;51.482;5.702;2024-03-02T20:10:29;6.50;;;1.85;;
76786;SDS011;65739;51.482;5.702;2024-03-02T20:12:54;2.47;;;1.85;;
76786;SDS011;65739;51.482;5.702;2024-03-02T20:15:20;2.95;;;2.03;;
76786;SDS011;65739;51.482;5.702;2024-03-02T20:17:45;3.60;;;2.30;;
76786;SDS011;65739;51.482;5.702;2024-03-02T20:20:14;3.80;;;2.10;;
76786;SDS011;65739;51.482;5.702;2024-03-02T20:22:40;2.25;;;1.73;;
76786;SDS011;65739;51.482;5.702;2024-03-02T20:25:06;2.40;;;2.00;;
76786;SDS011;65739;51.482;5.702;2024-03-02T20:27:32;3.00;;;1.90;;
76786;SDS011;65739;51.482;5.702;2024-03-02T20:29:58;1.70;;;1.60;;
76786;SDS011;65739;51.482;5.702;2024-03-02T20:32:23;2.00;;;1.80;;
76786;SDS011;65739;51.482;5.702;2024-03-02T20:34:50;2.70;;;1.90;;
76786;SDS011;65739;51.482;5.702;2024-03-02T20:37:16;2.80;;;2.10;;
76786;SDS011;65739;51.482;5.702;2024-03-02T20:39:48;3.42;;;2.03;;
76786;SDS011;65739;51.482;5.702;2024-03-02T20:42:22;3.40;;;2.00;;
76786;SDS011;65739;51.482;5.702;2024-03-02T20:44:51;5.25;;;2.25;;
76786;SDS011;65739;51.482;5.702;2024-03-02T20:47:20;2.42;;;1.85;;
76786;SDS011;65739;51.482;5.702;2024-03-02T20:50:06;1.92;;;1.65;;
76786;SDS011;65739;51.482;5.702;2024-03-02T20:52:32;3.42;;;2.10;;
76786;SDS011;65739;51.482;5.702;2024-03-02T20:54:57;3.28;;;2.10;;
76786;SDS011;65739;51.482;5.702;2024-03-02T20:57:23;2.35;;;1.80;;
76786;SDS011;65739;51.482;5.702;2024-03-02T20:59:49;2.38;;;1.52;;
76786;SDS011;65739;51.482;5.702;2024-03-02T21:02:14;4.00;;;2.05;;
76786;SDS011;65739;51.482;5.702;2024-03-02T21:04:41;2.53;;;2.17;;
76786;SDS011;65739;51.482;5.702;2024-03-02T21:07:09;3.67;;;2.50;;
76786;SDS011;65739;51.482;5.702;2024-03-02T21:09:34;3.72;;;2.63;;
76786;SDS011;65739;51.482;5.702;2024-03-02T21:12:00;3.67;;;2.20;;
76786;SDS011;65739;51.482;5.702;2024-03-02T21:14:27;3.90;;;2.03;;
76786;SDS011;65739;51.482;5.702;2024-03-02T21:16:52;5.25;;;2.35;;
76786;SDS011;65739;51.482;5.702;2024-03-02T21:19:18;3.15;;;1.90;;
76786;SDS011;65739;51.482;5.702;2024-03-02T21:21:45;1.98;;;1.58;;
76786;SDS011;65739;51.482;5.702;2024-03-02T21:24:11;1.90;;;1.80;;
76786;SDS011;65739;51.482;5.702;2024-03-02T21:26:37;2.97;;;1.73;;
76786;SDS011;65739;51.482;5.702;2024-03-02T21:29:03;2.13;;;1.92;;
76786;SDS011;65739;51.482;5.702;2024-03-02T21:31:29;2.33;;;2.00;;
76786;SDS011;65739;51.482;5.702;2024-03-02T21:33:54;3.85;;;1.88;;
76786;SDS011;65739;51.482;5.702;2024-03-02T21:36:20;2.15;;;1.95;;
76786;SDS011;65739;51.482;5.702;2024-03-02T21:38:46;3.63;;;1.98;;
76786;SDS011;65739;51.482;5.702;2024-03-02T21:41:11;5.13;;;1.98;;
76786;SDS011;65739;51.482;5.702;2024-03-02T21:43:37;7.57;;;2.40;;
76786;SDS011;65739;51.482;5.702;2024-03-02T21:46:04;5.00;;;2.97;;
76786;SDS011;65739;51.482;5.702;2024-03-02T21:48:30;9.43;;;5.50;;
76786;SDS011;65739;51.482;5.702;2024-03-02T21:50:55;2.92;;;2.30;;
76786;SDS011;65739;51.482;5.702;2024-03-02T21:53:21;3.15;;;2.22;;
76786;SDS011;65739;51.482;5.702;2024-03-02T21:55:46;3.00;;;2.08;;
76786;SDS011;65739;51.482;5.702;2024-03-02T21:58:12;5.97;;;2.00;;
76786;SDS011;65739;51.482;5.702;2024-03-02T22:00:37;4.85;;;2.10;;
76786;SDS011;65739;51.482;5.702;2024-03-02T22:03:03;3.55;;;1.58;;
76786;SDS011;65739;51.482;5.702;2024-03-02T22:05:29;11.25;;;4.60;;
76786;SDS011;65739;51.482;5.702;2024-03-02T22:07:55;6.07;;;3.72;;
76786;SDS011;65739;51.482;5.702;2024-03-02T22:10:20;5.93;;;4.93;;
76786;SDS011;65739;51.482;5.702;2024-03-02T22:12:46;3.25;;;2.88;;
76786;SDS011;65739;51.482;5.702;2024-03-02T22:15:12;4.90;;;2.35;;
76786;SDS011;65739;51.482;5.702;2024-03-02T22:17:37;3.20;;;1.80;;
76786;SDS011;65739;51.482;5.702;2024-03-02T22:20:03;2.30;;;1.63;;
76786;SDS011;65739;51.482;5.702;2024-03-02T22:22:29;2.55;;;1.73;;
76786;SDS011;65739;51.482;5.702;2024-03-02T22:24:54;1.90;;;1.75;;
76786;SDS011;65739;51.482;5.702;2024-03-02T22:27:20;1.98;;;1.77;;
76786;SDS011;65739;51.482;5.702;2024-03-02T22:29:46;2.30;;;1.67;;
76786;SDS011;65739;51.482;5.702;2024-03-02T22:32:12;1.67;;;1.40;;
76786;SDS011;65739;51.482;5.702;2024-03-02T22:34:37;3.05;;;1.75;;
76786;SDS011;65739;51.482;5.702;2024-03-02T22:37:03;4.78;;;2.10;;
76786;SDS011;65739;51.482;5.702;2024-03-02T22:39:28;3.75;;;1.80;;
76786;SDS011;65739;51.482;5.702;2024-03-02T22:41:54;5.10;;;2.00;;
76786;SDS011;65739;51.482;5.702;2024-03-02T22:44:20;2.92;;;1.67;;
76786;SDS011;65739;51.482;5.702;2024-03-02T22:46:45;2.78;;;1.73;;
76786;SDS011;65739;51.482;5.702;2024-03-02T22:49:11;2.33;;;2.13;;
76786;SDS011;65739;51.482;5.702;2024-03-02T22:51:36;2.70;;;1.60;;
76786;SDS011;65739;51.482;5.702;2024-03-02T22:54:02;2.60;;;1.58;;
76786;SDS011;65739;51.482;5.702;2024-03-02T22:56:27;1.58;;;1.48;;
76786;SDS011;65739;51.482;5.702;2024-03-02T22:58:53;4.47;;;1.80;;
76786;SDS011;65739;51.482;5.702;2024-03-02T23:01:19;2.10;;;1.65;;
76786;SDS011;65739;51.482;5.702;2024-03-02T23:03:46;3.00;;;1.70;;
76786;SDS011;65739;51.482;5.702;2024-03-02T23:06:12;4.47;;;1.85;;
76786;SDS011;65739;51.482;5.702;2024-03-02T23:08:38;4.03;;;1.65;;
76786;SDS011;65739;51.482;5.702;2024-03-02T23:11:03;3.00;;;1.70;;
76786;SDS011;65739;51.482;5.702;2024-03-02T23:13:29;3.40;;;1.90;;
76786;SDS011;65739;51.482;5.702;2024-03-02T23:15:56;2.63;;;1.92;;
76786;SDS011;65739;51.482;5.702;2024-03-02T23:18:25;3.13;;;1.77;;
76786;SDS011;65739;51.482;5.702;2024-03-02T23:20:51;2.97;;;2.25;;
76786;SDS011;65739;51.482;5.702;2024-03-02T23:23:17;2.40;;;1.90;;
76786;SDS011;65739;51.482;5.702;2024-03-02T23:25:43;5.57;;;2.20;;
76786;SDS011;65739;51.482;5.702;2024-03-02T23:28:10;2.85;;;1.80;;
76786;SDS011;65739;51.482;5.702;2024-03-02T23:30:35;2.85;;;1.70;;
76786;SDS011;65739;51.482;5.702;2024-03-02T23:33:01;3.85;;;2.00;;
76786;SDS011;65739;51.482;5.702;2024-03-02T23:35:28;3.15;;;2.00;;
76786;SDS011;65739;51.482;5.702;2024-03-02T23:37:54;2.50;;;2.00;;
76786;SDS011;65739;51.482;5.702;2024-03-02T23:40:19;2.95;;;2.33;;
76786;SDS011;65739;51.482;5.702;2024-03-02T23:42:53;2.85;;;2.35;;
76786;SDS011;65739;51.482;5.702;2024-03-02T23:45:22;2.75;;;2.00;;
76786;SDS011;65739;51.482;5.702;2024-03-02T23:47:47;5.28;;;3.08;;
76786;SDS011;65739;51.482;5.702;2024-03-02T23:50:13;2.95;;;2.47;;
76786;SDS011;65739;51.482;5.702;2024-03-02T23:52:39;2.35;;;2.10;;
76786;SDS011;65739;51.482;5.702;2024-03-02T23:55:04;3.55;;;2.00;;
76786;SDS011;65739;51.482;5.702;2024-03-02T23:57:30;2.80;;;2.00;;
76786;SDS011;65739;51.482;5.702;2024-03-02T23:59:56;2.95;;;2.30;;
